sensor_id;sensor_type;location;lat;lon;timestamp;P1;durP1;ratioP1;P2;durP2;ratioP2
17488;SDS011;8861;52.644;4.734;2022-12-29T00:01:28;17.17;;;7.10;;
17488;SDS011;8861;52.644;4.734;2022-12-29T00:03:55;11.47;;;6.67;;
17488;SDS011;8861;52.644;4.734;2022-12-29T00:06:22;12.67;;;6.90;;
17488;SDS011;8861;52.644;4.734;2022-12-29T00:08:49;10.57;;;6.13;;
17488;SDS011;8861;52.644;4.734;2022-12-29T00:11:18;14.73;;;6.70;;
17488;SDS011;8861;52.644;4.734;2022-12-29T00:13:46;9.77;;;5.53;;
17488;SDS011;8861;52.644;4.734;2022-12-29T00:16:32;12.53;;;6.70;;
17488;SDS011;8861;52.644;4.734;2022-12-29T00:18:59;21.47;;;7.00;;
17488;SDS011;8861;52.644;4.734;2022-12-29T00:21:27;11.60;;;6.87;;
17488;SDS011;8861;52.644;4.734;2022-12-29T00:24:12;10.67;;;6.83;;
17488;SDS011;8861;52.644;4.734;2022-12-29T00:27:07;11.77;;;6.50;;
17488;SDS011;8861;52.644;4.734;2022-12-29T00:29:54;12.40;;;6.53;;
17488;SDS011;8861;52.644;4.734;2022-12-29T00:32:39;14.10;;;6.53;;
17488;SDS011;8861;52.644;4.734;2022-12-29T00:35:24;8.90;;;5.43;;
17488;SDS011;8861;52.644;4.734;2022-12-29T00:37:53;11.33;;;5.03;;
17488;SDS011;8861;52.644;4.734;2022-12-29T00:40:40;12.93;;;4.60;;
17488;SDS011;8861;52.644;4.734;2022-12-29T00:43:26;7.63;;;3.43;;
17488;SDS011;8861;52.644;4.734;2022-12-29T00:46:16;10.73;;;5.10;;
17488;SDS011;8861;52.644;4.734;2022-12-29T00:48:43;10.57;;;5.57;;
17488;SDS011;8861;52.644;4.734;2022-12-29T00:51:27;10.27;;;6.50;;
17488;SDS011;8861;52.644;4.734;2022-12-29T00:53:54;14.87;;;8.20;;
17488;SDS011;8861;52.644;4.734;2022-12-29T00:56:21;12.97;;;7.23;;
17488;SDS011;8861;52.644;4.734;2022-12-29T00:58:50;17.63;;;9.57;;
17488;SDS011;8861;52.644;4.734;2022-12-29T01:01:17;20.40;;;9.57;;
17488;SDS011;8861;52.644;4.734;2022-12-29T01:03:44;19.77;;;10.47;;
17488;SDS011;8861;52.644;4.734;2022-12-29T01:06:11;20.50;;;10.93;;
17488;SDS011;8861;52.644;4.734;2022-12-29T01:08:38;20.13;;;9.93;;
17488;SDS011;8861;52.644;4.734;2022-12-29T01:11:06;17.67;;;8.73;;
17488;SDS011;8861;52.644;4.734;2022-12-29T01:13:33;11.13;;;7.03;;
17488;SDS011;8861;52.644;4.734;2022-12-29T01:16:04;15.13;;;7.60;;
17488;SDS011;8861;52.644;4.734;2022-12-29T01:18:31;14.10;;;7.70;;
17488;SDS011;8861;52.644;4.734;2022-12-29T01:20:59;12.57;;;6.47;;
17488;SDS011;8861;52.644;4.734;2022-12-29T01:23:26;13.80;;;6.07;;
17488;SDS011;8861;52.644;4.734;2022-12-29T01:25:54;14.03;;;4.30;;
17488;SDS011;8861;52.644;4.734;2022-12-29T01:28:21;10.53;;;3.67;;
17488;SDS011;8861;52.644;4.734;2022-12-29T01:30:48;10.33;;;2.77;;
17488;SDS011;8861;52.644;4.734;2022-12-29T01:33:16;13.60;;;3.30;;
17488;SDS011;8861;52.644;4.734;2022-12-29T01:35:45;9.97;;;2.57;;
17488;SDS011;8861;52.644;4.734;2022-12-29T01:38:12;12.70;;;3.03;;
17488;SDS011;8861;52.644;4.734;2022-12-29T01:40:43;8.17;;;3.23;;
17488;SDS011;8861;52.644;4.734;2022-12-29T01:43:11;11.73;;;4.00;;
17488;SDS011;8861;52.644;4.734;2022-12-29T01:45:40;14.43;;;4.10;;
17488;SDS011;8861;52.644;4.734;2022-12-29T01:48:11;10.47;;;4.17;;
17488;SDS011;8861;52.644;4.734;2022-12-29T01:50:42;9.43;;;3.10;;
17488;SDS011;8861;52.644;4.734;2022-12-29T01:53:13;10.10;;;3.73;;
17488;SDS011;8861;52.644;4.734;2022-12-29T01:55:46;19.13;;;5.43;;
17488;SDS011;8861;52.644;4.734;2022-12-29T01:58:15;25.03;;;5.83;;
17488;SDS011;8861;52.644;4.734;2022-12-29T02:00:46;20.13;;;4.70;;
17488;SDS011;8861;52.644;4.734;2022-12-29T02:03:13;21.87;;;4.70;;
17488;SDS011;8861;52.644;4.734;2022-12-29T02:05:43;23.90;;;5.03;;
17488;SDS011;8861;52.644;4.734;2022-12-29T02:08:17;23.57;;;5.07;;
17488;SDS011;8861;52.644;4.734;2022-12-29T02:10:45;23.03;;;4.77;;
17488;SDS011;8861;52.644;4.734;2022-12-29T02:13:14;36.33;;;5.53;;
17488;SDS011;8861;52.644;4.734;2022-12-29T02:15:46;27.20;;;4.60;;
17488;SDS011;8861;52.644;4.734;2022-12-29T02:18:25;30.80;;;4.77;;
17488;SDS011;8861;52.644;4.734;2022-12-29T02:24:10;33.10;;;5.20;;
17488;SDS011;8861;52.644;4.734;2022-12-29T02:27:01;30.60;;;4.30;;
17488;SDS011;8861;52.644;4.734;2022-12-29T02:29:51;31.67;;;4.63;;
17488;SDS011;8861;52.644;4.734;2022-12-29T02:32:39;30.87;;;4.90;;
17488;SDS011;8861;52.644;4.734;2022-12-29T02:35:14;26.00;;;4.87;;
17488;SDS011;8861;52.644;4.734;2022-12-29T02:37:49;25.97;;;4.77;;
17488;SDS011;8861;52.644;4.734;2022-12-29T02:40:23;28.73;;;5.10;;
17488;SDS011;8861;52.644;4.734;2022-12-29T02:42:55;31.87;;;5.00;;
17488;SDS011;8861;52.644;4.734;2022-12-29T02:45:31;32.40;;;5.13;;
17488;SDS011;8861;52.644;4.734;2022-12-29T02:48:07;30.23;;;5.23;;
17488;SDS011;8861;52.644;4.734;2022-12-29T02:50:39;30.63;;;4.70;;
17488;SDS011;8861;52.644;4.734;2022-12-29T02:53:14;31.37;;;4.97;;
17488;SDS011;8861;52.644;4.734;2022-12-29T02:56:03;27.40;;;5.17;;
17488;SDS011;8861;52.644;4.734;2022-12-29T02:58:32;33.33;;;4.70;;
17488;SDS011;8861;52.644;4.734;2022-12-29T03:01:06;29.70;;;4.50;;
17488;SDS011;8861;52.644;4.734;2022-12-29T03:03:51;36.37;;;5.00;;
17488;SDS011;8861;52.644;4.734;2022-12-29T03:06:42;28.13;;;4.37;;
17488;SDS011;8861;52.644;4.734;2022-12-29T03:09:19;37.13;;;4.93;;
17488;SDS011;8861;52.644;4.734;2022-12-29T03:11:54;29.80;;;4.47;;
17488;SDS011;8861;52.644;4.734;2022-12-29T03:14:37;36.33;;;5.37;;
17488;SDS011;8861;52.644;4.734;2022-12-29T03:17:34;42.67;;;5.33;;
17488;SDS011;8861;52.644;4.734;2022-12-29T03:20:06;43.93;;;5.20;;
17488;SDS011;8861;52.644;4.734;2022-12-29T03:22:36;37.70;;;5.30;;
17488;SDS011;8861;52.644;4.734;2022-12-29T03:25:08;55.23;;;5.60;;
17488;SDS011;8861;52.644;4.734;2022-12-29T03:27:39;46.27;;;5.90;;
17488;SDS011;8861;52.644;4.734;2022-12-29T03:30:10;62.57;;;7.83;;
17488;SDS011;8861;52.644;4.734;2022-12-29T03:32:39;43.73;;;5.77;;
17488;SDS011;8861;52.644;4.734;2022-12-29T03:35:13;53.47;;;6.17;;
17488;SDS011;8861;52.644;4.734;2022-12-29T03:37:44;57.27;;;6.40;;
17488;SDS011;8861;52.644;4.734;2022-12-29T03:40:19;62.77;;;6.80;;
17488;SDS011;8861;52.644;4.734;2022-12-29T03:42:48;58.00;;;7.23;;
17488;SDS011;8861;52.644;4.734;2022-12-29T03:45:15;42.73;;;6.40;;
17488;SDS011;8861;52.644;4.734;2022-12-29T03:47:42;56.07;;;6.73;;
17488;SDS011;8861;52.644;4.734;2022-12-29T03:50:12;50.03;;;6.90;;
17488;SDS011;8861;52.644;4.734;2022-12-29T03:52:39;55.30;;;6.90;;
17488;SDS011;8861;52.644;4.734;2022-12-29T03:55:07;59.00;;;7.23;;
17488;SDS011;8861;52.644;4.734;2022-12-29T03:57:34;49.53;;;6.60;;
17488;SDS011;8861;52.644;4.734;2022-12-29T04:00:02;53.70;;;6.77;;
17488;SDS011;8861;52.644;4.734;2022-12-29T04:02:31;50.60;;;6.20;;
17488;SDS011;8861;52.644;4.734;2022-12-29T04:04:58;50.80;;;7.23;;
17488;SDS011;8861;52.644;4.734;2022-12-29T04:07:26;52.73;;;6.97;;
17488;SDS011;8861;52.644;4.734;2022-12-29T04:09:53;61.40;;;7.20;;
17488;SDS011;8861;52.644;4.734;2022-12-29T04:12:20;45.57;;;6.63;;
17488;SDS011;8861;52.644;4.734;2022-12-29T04:14:47;46.20;;;6.70;;
17488;SDS011;8861;52.644;4.734;2022-12-29T04:17:14;40.73;;;5.87;;
17488;SDS011;8861;52.644;4.734;2022-12-29T04:19:41;43.63;;;6.50;;
17488;SDS011;8861;52.644;4.734;2022-12-29T04:22:08;39.90;;;6.47;;
17488;SDS011;8861;52.644;4.734;2022-12-29T04:24:38;34.10;;;5.93;;
17488;SDS011;8861;52.644;4.734;2022-12-29T04:27:05;43.17;;;7.47;;
17488;SDS011;8861;52.644;4.734;2022-12-29T04:29:32;48.00;;;6.27;;
17488;SDS011;8861;52.644;4.734;2022-12-29T04:31:59;43.57;;;6.30;;
17488;SDS011;8861;52.644;4.734;2022-12-29T04:34:26;37.53;;;6.47;;
17488;SDS011;8861;52.644;4.734;2022-12-29T04:36:52;37.57;;;6.13;;
17488;SDS011;8861;52.644;4.734;2022-12-29T04:39:19;38.67;;;5.87;;
17488;SDS011;8861;52.644;4.734;2022-12-29T04:41:48;37.87;;;5.77;;
17488;SDS011;8861;52.644;4.734;2022-12-29T04:44:15;42.53;;;6.10;;
17488;SDS011;8861;52.644;4.734;2022-12-29T04:46:42;44.17;;;5.57;;
17488;SDS011;8861;52.644;4.734;2022-12-29T04:49:09;46.93;;;6.20;;
17488;SDS011;8861;52.644;4.734;2022-12-29T04:51:36;41.50;;;6.00;;
17488;SDS011;8861;52.644;4.734;2022-12-29T04:54:03;50.20;;;6.40;;
17488;SDS011;8861;52.644;4.734;2022-12-29T04:56:30;53.87;;;6.47;;
17488;SDS011;8861;52.644;4.734;2022-12-29T04:58:59;41.10;;;6.83;;
17488;SDS011;8861;52.644;4.734;2022-12-29T05:01:26;49.60;;;6.20;;
17488;SDS011;8861;52.644;4.734;2022-12-29T05:03:53;52.03;;;6.70;;
17488;SDS011;8861;52.644;4.734;2022-12-29T05:06:19;60.87;;;7.07;;
17488;SDS011;8861;52.644;4.734;2022-12-29T05:08:46;48.23;;;6.60;;
17488;SDS011;8861;52.644;4.734;2022-12-29T05:11:13;51.73;;;6.90;;
17488;SDS011;8861;52.644;4.734;2022-12-29T05:13:40;41.90;;;6.40;;
17488;SDS011;8861;52.644;4.734;2022-12-29T05:16:09;48.77;;;6.17;;
17488;SDS011;8861;52.644;4.734;2022-12-29T05:18:36;51.40;;;7.23;;
17488;SDS011;8861;52.644;4.734;2022-12-29T05:21:03;50.60;;;6.73;;
17488;SDS011;8861;52.644;4.734;2022-12-29T05:23:30;45.23;;;6.93;;
17488;SDS011;8861;52.644;4.734;2022-12-29T05:25:57;49.63;;;6.87;;
17488;SDS011;8861;52.644;4.734;2022-12-29T05:28:24;48.30;;;6.63;;
17488;SDS011;8861;52.644;4.734;2022-12-29T05:30:51;44.10;;;6.27;;
17488;SDS011;8861;52.644;4.734;2022-12-29T05:33:19;48.20;;;6.63;;
17488;SDS011;8861;52.644;4.734;2022-12-29T05:35:46;39.57;;;6.07;;
17488;SDS011;8861;52.644;4.734;2022-12-29T05:38:14;37.13;;;6.03;;
17488;SDS011;8861;52.644;4.734;2022-12-29T05:40:41;43.87;;;6.30;;
17488;SDS011;8861;52.644;4.734;2022-12-29T05:43:08;47.43;;;6.87;;
17488;SDS011;8861;52.644;4.734;2022-12-29T05:45:36;45.57;;;6.53;;
17488;SDS011;8861;52.644;4.734;2022-12-29T05:48:03;53.07;;;6.77;;
17488;SDS011;8861;52.644;4.734;2022-12-29T05:50:32;53.77;;;7.13;;
17488;SDS011;8861;52.644;4.734;2022-12-29T05:52:58;49.67;;;6.30;;
17488;SDS011;8861;52.644;4.734;2022-12-29T05:55:25;52.87;;;7.00;;
17488;SDS011;8861;52.644;4.734;2022-12-29T05:57:52;42.33;;;6.87;;
17488;SDS011;8861;52.644;4.734;2022-12-29T06:00:19;43.23;;;6.90;;
17488;SDS011;8861;52.644;4.734;2022-12-29T06:02:46;61.60;;;7.30;;
17488;SDS011;8861;52.644;4.734;2022-12-29T06:05:14;51.67;;;6.93;;
17488;SDS011;8861;52.644;4.734;2022-12-29T06:07:42;56.63;;;7.90;;
17488;SDS011;8861;52.644;4.734;2022-12-29T06:10:09;48.33;;;7.03;;
17488;SDS011;8861;52.644;4.734;2022-12-29T06:12:36;49.30;;;7.17;;
17488;SDS011;8861;52.644;4.734;2022-12-29T06:15:04;44.30;;;7.10;;
17488;SDS011;8861;52.644;4.734;2022-12-29T06:17:32;52.43;;;7.83;;
17488;SDS011;8861;52.644;4.734;2022-12-29T06:19:59;55.43;;;6.93;;
17488;SDS011;8861;52.644;4.734;2022-12-29T06:22:26;57.37;;;7.63;;
17488;SDS011;8861;52.644;4.734;2022-12-29T06:24:54;61.67;;;7.37;;
17488;SDS011;8861;52.644;4.734;2022-12-29T06:27:21;45.27;;;7.20;;
17488;SDS011;8861;52.644;4.734;2022-12-29T06:29:48;54.33;;;6.77;;
17488;SDS011;8861;52.644;4.734;2022-12-29T06:32:15;42.87;;;6.90;;
17488;SDS011;8861;52.644;4.734;2022-12-29T06:34:42;46.20;;;6.37;;
17488;SDS011;8861;52.644;4.734;2022-12-29T06:37:10;54.57;;;6.63;;
17488;SDS011;8861;52.644;4.734;2022-12-29T06:39:38;45.73;;;6.90;;
17488;SDS011;8861;52.644;4.734;2022-12-29T06:42:06;60.27;;;7.17;;
17488;SDS011;8861;52.644;4.734;2022-12-29T06:44:35;40.30;;;6.90;;
17488;SDS011;8861;52.644;4.734;2022-12-29T06:47:02;47.00;;;7.33;;
17488;SDS011;8861;52.644;4.734;2022-12-29T06:49:29;57.57;;;7.43;;
17488;SDS011;8861;52.644;4.734;2022-12-29T06:51:56;45.63;;;6.87;;
17488;SDS011;8861;52.644;4.734;2022-12-29T06:54:25;53.00;;;6.93;;
17488;SDS011;8861;52.644;4.734;2022-12-29T06:56:52;50.47;;;7.17;;
17488;SDS011;8861;52.644;4.734;2022-12-29T06:59:21;49.80;;;6.80;;
17488;SDS011;8861;52.644;4.734;2022-12-29T07:01:48;44.43;;;6.10;;
17488;SDS011;8861;52.644;4.734;2022-12-29T07:04:15;49.40;;;7.67;;
17488;SDS011;8861;52.644;4.734;2022-12-29T07:06:42;55.03;;;7.33;;
17488;SDS011;8861;52.644;4.734;2022-12-29T07:09:10;48.03;;;7.90;;
17488;SDS011;8861;52.644;4.734;2022-12-29T07:11:37;44.70;;;6.90;;
17488;SDS011;8861;52.644;4.734;2022-12-29T07:14:04;50.00;;;7.87;;
17488;SDS011;8861;52.644;4.734;2022-12-29T07:16:32;57.73;;;7.40;;
17488;SDS011;8861;52.644;4.734;2022-12-29T07:18:59;48.53;;;7.50;;
17488;SDS011;8861;52.644;4.734;2022-12-29T07:21:26;52.43;;;7.53;;
17488;SDS011;8861;52.644;4.734;2022-12-29T07:23:53;46.53;;;7.23;;
17488;SDS011;8861;52.644;4.734;2022-12-29T07:26:20;45.47;;;6.40;;
17488;SDS011;8861;52.644;4.734;2022-12-29T07:28:48;48.63;;;7.30;;
17488;SDS011;8861;52.644;4.734;2022-12-29T07:31:15;45.67;;;6.43;;
17488;SDS011;8861;52.644;4.734;2022-12-29T07:33:45;56.57;;;7.60;;
17488;SDS011;8861;52.644;4.734;2022-12-29T07:36:14;48.47;;;7.57;;
17488;SDS011;8861;52.644;4.734;2022-12-29T07:38:41;54.37;;;7.30;;
17488;SDS011;8861;52.644;4.734;2022-12-29T07:41:09;56.63;;;7.27;;
17488;SDS011;8861;52.644;4.734;2022-12-29T07:43:36;61.87;;;7.97;;
17488;SDS011;8861;52.644;4.734;2022-12-29T07:46:03;46.00;;;7.07;;
17488;SDS011;8861;52.644;4.734;2022-12-29T07:48:30;48.10;;;7.63;;
17488;SDS011;8861;52.644;4.734;2022-12-29T07:51:00;53.97;;;6.93;;
17488;SDS011;8861;52.644;4.734;2022-12-29T07:53:26;50.90;;;7.07;;
17488;SDS011;8861;52.644;4.734;2022-12-29T07:55:53;51.97;;;7.20;;
17488;SDS011;8861;52.644;4.734;2022-12-29T07:58:20;52.17;;;7.43;;
17488;SDS011;8861;52.644;4.734;2022-12-29T08:00:47;58.83;;;7.83;;
17488;SDS011;8861;52.644;4.734;2022-12-29T08:03:19;52.30;;;7.47;;
17488;SDS011;8861;52.644;4.734;2022-12-29T08:05:46;48.13;;;7.47;;
17488;SDS011;8861;52.644;4.734;2022-12-29T08:08:14;51.80;;;6.80;;
17488;SDS011;8861;52.644;4.734;2022-12-29T08:10:41;47.00;;;7.40;;
17488;SDS011;8861;52.644;4.734;2022-12-29T08:13:08;64.60;;;8.67;;
17488;SDS011;8861;52.644;4.734;2022-12-29T08:15:37;56.47;;;8.17;;
17488;SDS011;8861;52.644;4.734;2022-12-29T08:18:04;50.57;;;7.50;;
17488;SDS011;8861;52.644;4.734;2022-12-29T08:20:31;69.10;;;8.87;;
17488;SDS011;8861;52.644;4.734;2022-12-29T08:22:58;61.97;;;8.17;;
17488;SDS011;8861;52.644;4.734;2022-12-29T08:25:27;61.23;;;8.60;;
17488;SDS011;8861;52.644;4.734;2022-12-29T08:27:54;54.37;;;7.60;;
17488;SDS011;8861;52.644;4.734;2022-12-29T08:30:20;58.13;;;8.57;;
17488;SDS011;8861;52.644;4.734;2022-12-29T08:32:47;55.67;;;7.27;;
17488;SDS011;8861;52.644;4.734;2022-12-29T08:35:14;48.30;;;7.40;;
17488;SDS011;8861;52.644;4.734;2022-12-29T08:37:41;50.30;;;7.47;;
17488;SDS011;8861;52.644;4.734;2022-12-29T08:40:09;56.43;;;7.57;;
17488;SDS011;8861;52.644;4.734;2022-12-29T08:42:37;51.73;;;7.43;;
17488;SDS011;8861;52.644;4.734;2022-12-29T08:45:05;55.73;;;7.57;;
17488;SDS011;8861;52.644;4.734;2022-12-29T08:47:33;52.37;;;6.93;;
17488;SDS011;8861;52.644;4.734;2022-12-29T08:50:00;45.00;;;7.60;;
17488;SDS011;8861;52.644;4.734;2022-12-29T08:52:27;55.47;;;7.40;;
17488;SDS011;8861;52.644;4.734;2022-12-29T08:54:54;51.13;;;7.00;;
17488;SDS011;8861;52.644;4.734;2022-12-29T08:57:21;56.13;;;7.47;;
17488;SDS011;8861;52.644;4.734;2022-12-29T08:59:50;51.60;;;7.57;;
17488;SDS011;8861;52.644;4.734;2022-12-29T09:02:17;41.37;;;6.40;;
17488;SDS011;8861;52.644;4.734;2022-12-29T09:04:44;44.37;;;6.53;;
17488;SDS011;8861;52.644;4.734;2022-12-29T09:07:11;59.03;;;8.00;;
17488;SDS011;8861;52.644;4.734;2022-12-29T09:09:38;59.57;;;7.70;;
17488;SDS011;8861;52.644;4.734;2022-12-29T09:12:05;49.90;;;6.67;;
17488;SDS011;8861;52.644;4.734;2022-12-29T09:14:32;54.93;;;8.03;;
17488;SDS011;8861;52.644;4.734;2022-12-29T09:17:00;58.10;;;8.10;;
17488;SDS011;8861;52.644;4.734;2022-12-29T09:19:45;54.40;;;8.80;;
17488;SDS011;8861;52.644;4.734;2022-12-29T09:22:12;64.50;;;8.33;;
17488;SDS011;8861;52.644;4.734;2022-12-29T09:24:39;53.17;;;7.13;;
17488;SDS011;8861;52.644;4.734;2022-12-29T09:27:05;58.83;;;7.83;;
17488;SDS011;8861;52.644;4.734;2022-12-29T09:29:35;50.53;;;8.17;;
17488;SDS011;8861;52.644;4.734;2022-12-29T09:32:03;58.67;;;9.53;;
17488;SDS011;8861;52.644;4.734;2022-12-29T09:34:30;56.30;;;8.83;;
17488;SDS011;8861;52.644;4.734;2022-12-29T09:36:57;56.63;;;8.60;;
17488;SDS011;8861;52.644;4.734;2022-12-29T09:39:24;60.83;;;9.47;;
17488;SDS011;8861;52.644;4.734;2022-12-29T09:41:52;60.43;;;8.27;;
17488;SDS011;8861;52.644;4.734;2022-12-29T09:44:29;62.20;;;8.97;;
17488;SDS011;8861;52.644;4.734;2022-12-29T09:47:08;62.27;;;8.50;;
17488;SDS011;8861;52.644;4.734;2022-12-29T09:49:40;51.47;;;7.13;;
17488;SDS011;8861;52.644;4.734;2022-12-29T09:52:12;42.37;;;6.33;;
17488;SDS011;8861;52.644;4.734;2022-12-29T09:54:43;49.20;;;6.87;;
17488;SDS011;8861;52.644;4.734;2022-12-29T09:57:16;45.13;;;6.70;;
17488;SDS011;8861;52.644;4.734;2022-12-29T09:59:47;51.53;;;7.23;;
17488;SDS011;8861;52.644;4.734;2022-12-29T10:02:26;57.13;;;7.67;;
17488;SDS011;8861;52.644;4.734;2022-12-29T10:04:58;54.50;;;6.40;;
17488;SDS011;8861;52.644;4.734;2022-12-29T10:07:27;40.60;;;6.37;;
17488;SDS011;8861;52.644;4.734;2022-12-29T10:13:00;29.90;;;5.07;;
17488;SDS011;8861;52.644;4.734;2022-12-29T10:15:39;32.43;;;6.87;;
17488;SDS011;8861;52.644;4.734;2022-12-29T10:18:20;31.70;;;4.80;;
17488;SDS011;8861;52.644;4.734;2022-12-29T10:21:03;26.37;;;4.47;;
17488;SDS011;8861;52.644;4.734;2022-12-29T10:23:35;31.07;;;4.90;;
17488;SDS011;8861;52.644;4.734;2022-12-29T10:26:08;24.30;;;4.93;;
17488;SDS011;8861;52.644;4.734;2022-12-29T10:28:42;30.10;;;4.50;;
17488;SDS011;8861;52.644;4.734;2022-12-29T10:31:11;34.10;;;4.63;;
17488;SDS011;8861;52.644;4.734;2022-12-29T10:33:46;30.17;;;4.20;;
17488;SDS011;8861;52.644;4.734;2022-12-29T10:36:18;32.57;;;5.17;;
17488;SDS011;8861;52.644;4.734;2022-12-29T10:38:58;30.40;;;5.03;;
17488;SDS011;8861;52.644;4.734;2022-12-29T10:41:32;25.97;;;4.10;;
17488;SDS011;8861;52.644;4.734;2022-12-29T10:44:04;27.80;;;4.10;;
17488;SDS011;8861;52.644;4.734;2022-12-29T10:46:32;19.20;;;3.53;;
17488;SDS011;8861;52.644;4.734;2022-12-29T10:49:02;21.67;;;3.70;;
17488;SDS011;8861;52.644;4.734;2022-12-29T10:51:32;19.87;;;3.47;;
17488;SDS011;8861;52.644;4.734;2022-12-29T10:54:03;28.30;;;4.10;;
17488;SDS011;8861;52.644;4.734;2022-12-29T10:56:38;22.17;;;3.30;;
17488;SDS011;8861;52.644;4.734;2022-12-29T10:59:11;19.10;;;3.37;;
17488;SDS011;8861;52.644;4.734;2022-12-29T11:01:48;19.53;;;3.47;;
17488;SDS011;8861;52.644;4.734;2022-12-29T11:04:28;17.77;;;3.03;;
17488;SDS011;8861;52.644;4.734;2022-12-29T11:07:06;21.30;;;3.47;;
17488;SDS011;8861;52.644;4.734;2022-12-29T11:09:35;23.33;;;3.80;;
17488;SDS011;8861;52.644;4.734;2022-12-29T11:12:17;21.77;;;3.97;;
17488;SDS011;8861;52.644;4.734;2022-12-29T11:14:46;22.10;;;3.97;;
17488;SDS011;8861;52.644;4.734;2022-12-29T11:17:14;22.00;;;4.03;;
17488;SDS011;8861;52.644;4.734;2022-12-29T11:19:44;19.53;;;3.67;;
17488;SDS011;8861;52.644;4.734;2022-12-29T11:22:14;17.20;;;3.53;;
17488;SDS011;8861;52.644;4.734;2022-12-29T11:24:48;20.20;;;4.30;;
17488;SDS011;8861;52.644;4.734;2022-12-29T11:27:18;17.27;;;3.73;;
17488;SDS011;8861;52.644;4.734;2022-12-29T11:29:48;18.37;;;3.77;;
17488;SDS011;8861;52.644;4.734;2022-12-29T11:32:17;15.80;;;3.63;;
17488;SDS011;8861;52.644;4.734;2022-12-29T11:34:47;23.73;;;4.00;;
17488;SDS011;8861;52.644;4.734;2022-12-29T11:37:14;23.13;;;3.67;;
17488;SDS011;8861;52.644;4.734;2022-12-29T11:39:46;20.20;;;4.23;;
17488;SDS011;8861;52.644;4.734;2022-12-29T11:42:19;23.30;;;3.93;;
17488;SDS011;8861;52.644;4.734;2022-12-29T11:44:49;25.63;;;4.07;;
17488;SDS011;8861;52.644;4.734;2022-12-29T11:47:22;22.53;;;3.50;;
17488;SDS011;8861;52.644;4.734;2022-12-29T11:49:55;17.87;;;3.33;;
17488;SDS011;8861;52.644;4.734;2022-12-29T11:52:25;20.10;;;3.63;;
17488;SDS011;8861;52.644;4.734;2022-12-29T11:54:54;20.43;;;3.17;;
17488;SDS011;8861;52.644;4.734;2022-12-29T11:57:23;19.80;;;4.00;;
17488;SDS011;8861;52.644;4.734;2022-12-29T11:59:51;14.83;;;3.40;;
17488;SDS011;8861;52.644;4.734;2022-12-29T12:02:22;21.70;;;3.53;;
17488;SDS011;8861;52.644;4.734;2022-12-29T12:05:05;20.17;;;3.77;;
17488;SDS011;8861;52.644;4.734;2022-12-29T12:07:40;17.93;;;3.27;;
17488;SDS011;8861;52.644;4.734;2022-12-29T12:13:06;26.77;;;4.07;;
17488;SDS011;8861;52.644;4.734;2022-12-29T12:15:44;21.43;;;3.40;;
17488;SDS011;8861;52.644;4.734;2022-12-29T12:18:17;20.27;;;3.73;;
17488;SDS011;8861;52.644;4.734;2022-12-29T12:20:49;16.83;;;3.20;;
17488;SDS011;8861;52.644;4.734;2022-12-29T12:23:29;25.60;;;4.20;;
17488;SDS011;8861;52.644;4.734;2022-12-29T12:26:02;20.03;;;3.70;;
17488;SDS011;8861;52.644;4.734;2022-12-29T12:28:37;20.03;;;3.83;;
17488;SDS011;8861;52.644;4.734;2022-12-29T12:31:13;22.63;;;3.70;;
17488;SDS011;8861;52.644;4.734;2022-12-29T12:33:47;20.50;;;3.27;;
17488;SDS011;8861;52.644;4.734;2022-12-29T12:36:25;19.57;;;3.40;;
17488;SDS011;8861;52.644;4.734;2022-12-29T12:39:05;25.27;;;4.13;;
17488;SDS011;8861;52.644;4.734;2022-12-29T12:41:40;18.30;;;3.90;;
17488;SDS011;8861;52.644;4.734;2022-12-29T12:44:18;22.27;;;3.37;;
17488;SDS011;8861;52.644;4.734;2022-12-29T12:50:14;22.17;;;3.97;;
17488;SDS011;8861;52.644;4.734;2022-12-29T12:56:00;26.73;;;4.23;;
17488;SDS011;8861;52.644;4.734;2022-12-29T12:58:43;22.23;;;3.97;;
17488;SDS011;8861;52.644;4.734;2022-12-29T13:01:18;26.80;;;4.33;;
17488;SDS011;8861;52.644;4.734;2022-12-29T13:04:02;19.80;;;4.20;;
17488;SDS011;8861;52.644;4.734;2022-12-29T13:06:44;23.97;;;3.60;;
17488;SDS011;8861;52.644;4.734;2022-12-29T13:09:22;23.63;;;4.10;;
17488;SDS011;8861;52.644;4.734;2022-12-29T13:12:10;20.33;;;4.13;;
17488;SDS011;8861;52.644;4.734;2022-12-29T13:14:48;20.03;;;3.60;;
17488;SDS011;8861;52.644;4.734;2022-12-29T13:17:24;18.00;;;3.80;;
17488;SDS011;8861;52.644;4.734;2022-12-29T13:19:57;26.90;;;4.10;;
17488;SDS011;8861;52.644;4.734;2022-12-29T13:22:36;21.13;;;3.93;;
17488;SDS011;8861;52.644;4.734;2022-12-29T13:25:12;30.90;;;4.50;;
17488;SDS011;8861;52.644;4.734;2022-12-29T13:27:53;30.33;;;4.67;;
17488;SDS011;8861;52.644;4.734;2022-12-29T13:30:28;18.00;;;3.90;;
17488;SDS011;8861;52.644;4.734;2022-12-29T13:33:02;19.30;;;3.80;;
17488;SDS011;8861;52.644;4.734;2022-12-29T13:35:42;21.50;;;4.20;;
17488;SDS011;8861;52.644;4.734;2022-12-29T13:38:29;22.27;;;4.10;;
17488;SDS011;8861;52.644;4.734;2022-12-29T13:41:00;25.50;;;4.53;;
17488;SDS011;8861;52.644;4.734;2022-12-29T13:43:32;22.00;;;3.83;;
17488;SDS011;8861;52.644;4.734;2022-12-29T13:46:03;23.27;;;3.60;;
17488;SDS011;8861;52.644;4.734;2022-12-29T13:48:35;19.47;;;3.67;;
17488;SDS011;8861;52.644;4.734;2022-12-29T13:51:06;19.67;;;3.50;;
17488;SDS011;8861;52.644;4.734;2022-12-29T13:53:37;21.33;;;4.07;;
17488;SDS011;8861;52.644;4.734;2022-12-29T13:56:12;15.50;;;3.63;;
17488;SDS011;8861;52.644;4.734;2022-12-29T13:58:48;19.57;;;3.80;;
17488;SDS011;8861;52.644;4.734;2022-12-29T14:01:21;16.87;;;3.50;;
17488;SDS011;8861;52.644;4.734;2022-12-29T14:03:55;24.53;;;4.07;;
17488;SDS011;8861;52.644;4.734;2022-12-29T14:06:24;19.67;;;3.60;;
17488;SDS011;8861;52.644;4.734;2022-12-29T14:08:54;20.60;;;3.73;;
17488;SDS011;8861;52.644;4.734;2022-12-29T14:11:23;23.53;;;3.87;;
17488;SDS011;8861;52.644;4.734;2022-12-29T14:13:57;23.40;;;3.60;;
17488;SDS011;8861;52.644;4.734;2022-12-29T14:16:27;16.70;;;3.33;;
17488;SDS011;8861;52.644;4.734;2022-12-29T14:19:11;15.23;;;3.40;;
17488;SDS011;8861;52.644;4.734;2022-12-29T14:21:41;21.57;;;3.77;;
17488;SDS011;8861;52.644;4.734;2022-12-29T14:24:28;16.00;;;3.73;;
17488;SDS011;8861;52.644;4.734;2022-12-29T14:33:14;25.57;;;4.00;;
17488;SDS011;8861;52.644;4.734;2022-12-29T14:35:42;26.60;;;4.13;;
17488;SDS011;8861;52.644;4.734;2022-12-29T14:38:21;25.57;;;4.30;;
17488;SDS011;8861;52.644;4.734;2022-12-29T14:40:50;26.73;;;4.53;;
17488;SDS011;8861;52.644;4.734;2022-12-29T14:43:21;26.53;;;4.33;;
17488;SDS011;8861;52.644;4.734;2022-12-29T14:45:52;30.50;;;4.73;;
17488;SDS011;8861;52.644;4.734;2022-12-29T14:48:37;22.70;;;4.40;;
17488;SDS011;8861;52.644;4.734;2022-12-29T14:51:28;29.17;;;4.87;;
17488;SDS011;8861;52.644;4.734;2022-12-29T14:53:57;23.67;;;4.53;;
17488;SDS011;8861;52.644;4.734;2022-12-29T14:56:25;27.30;;;4.40;;
17488;SDS011;8861;52.644;4.734;2022-12-29T14:58:56;31.60;;;5.37;;
17488;SDS011;8861;52.644;4.734;2022-12-29T15:01:34;25.90;;;4.60;;
17488;SDS011;8861;52.644;4.734;2022-12-29T15:04:13;34.60;;;4.87;;
17488;SDS011;8861;52.644;4.734;2022-12-29T15:06:43;27.00;;;4.30;;
17488;SDS011;8861;52.644;4.734;2022-12-29T15:09:14;31.53;;;4.97;;
17488;SDS011;8861;52.644;4.734;2022-12-29T15:11:51;19.13;;;3.83;;
17488;SDS011;8861;52.644;4.734;2022-12-29T15:14:27;31.50;;;4.30;;
17488;SDS011;8861;52.644;4.734;2022-12-29T15:17:00;29.20;;;5.10;;
17488;SDS011;8861;52.644;4.734;2022-12-29T15:19:36;30.53;;;5.13;;
17488;SDS011;8861;52.644;4.734;2022-12-29T15:22:02;34.77;;;5.03;;
17488;SDS011;8861;52.644;4.734;2022-12-29T15:24:30;21.87;;;4.53;;
17488;SDS011;8861;52.644;4.734;2022-12-29T15:26:58;31.83;;;4.80;;
17488;SDS011;8861;52.644;4.734;2022-12-29T15:29:35;35.03;;;5.80;;
17488;SDS011;8861;52.644;4.734;2022-12-29T15:32:15;31.97;;;5.50;;
17488;SDS011;8861;52.644;4.734;2022-12-29T15:34:47;29.00;;;4.80;;